Mount Blanchard, OH (45867)

1:43 PM EST on February 11, 2016 (GMT -0500)
KOHARLIN2 | | Change Station
CLOSE
Current Station
Personal Weather Station
Location: ARLINGTON, OH
Elevation: 850 ft
Nearby Weather Stations

Elev 850 ft 40.87 °N, 83.66 °W | Updated 1 second ago

Overcast
Overcast
20.0 °F
Feels Like 11 °F
N
7.0
Wind Variable Wind from WNW
Gusts 18.0 mph

Today
High -- | Low -- °F
--% Chance of Precip.
Yesterday
High -- | Low -- °F
Precip. -- in
Pressure 30.23 in
Visibility 2.5 miles
Clouds Mostly Cloudy 2800 ft
Overcast 3900 ft
Windchill 11 °F
Dew Point 7 °F
Humidity 56%
Rainfall 0.00 in
Snow Depth Not available.
7:34 AM 6:03 PM
Waxing Crescent, 13% visible
SPECI KFDY 111836Z AUTO 31010KT 2 1/2SM -SN BKN028 OVC039 M07/M13 A3023 RMK AO2 VIS 1 1/4V5 SNB28 P0000 T10721128 TSNO
Pressure 30.23 in
Visibility 2.5 miles
Clouds Mostly Cloudy 2800 ft
Overcast 3900 ft
Windchill 11 °F
Dew Point 7 °F
Humidity 56%
Rainfall 0.00 in
Snow Depth Not available.
7:34 AM 6:03 PM
Waxing Crescent, 13% visible
SPECI KFDY 111836Z AUTO 31010KT 2 1/2SM -SN BKN028 OVC039 M07/M13 A3023 RMK AO2 VIS 1 1/4V5 SNB28 P0000 T10721128 TSNO

10-Day Weather Forecast

Almanac

Astronomy

Feb. 11, 2016 Rise Set
Actual Time
Civil Twilight
Nautical Twilight
Astronomical Twilight
Moon
Length of Visible Light
Length of Day
Tomorrow will be .
, % of the Moon is Illuminated

Today's Extremes

State Highs State Lows

Community

WunderPhotos

Upload Photos

1,892,125 photos uploaded!

WunderBlog® & News

Nearby

Air Quality

  Air Quality AQ Index Pollutant
Not available.

Snow Depth

Station Depth Elevation

Earthquake Activity

City Distance Mag. Time & Date
Minimum magnitude displayed is 2.5.

Coastal Water Temperatures

Place Temperature

Stations

Nearby Weather Stations

Station Location Temp. Windchill Dew Point Humidity Wind Precip. Elev Updated Type
                   

Watches & Warnings

There are currently no watches in effect.